BON101 FAOR-FACT
Flight info
| Callsign | BON101 |
|---|---|
| Flight time | N/A |
| Altitude | 34000 |
| Route | RAGUL3A RAGUL UQ10 DUMDO UZ26 ERDAS ERDAS1B |
| Aircraft | B38M/M-SDE1FGHILORVWXY/HB1 |
Departure
| Time | 2026-04-30 13:42 |
|---|---|
| Airport | O.R. Tambo International Airport (FAOR) |
Arrival
| Time | N/A |
|---|---|
| Airport | Cape Town International Airport (FACT) |
| Time | Latitude | Longitude | Altitude | Speed | Heading |
|---|---|---|---|---|---|
| 2026-04-30 13:22 | -26.13476 | 28.23281 | 5551 ft | 0 kts | 276° |
| 2026-04-30 13:33 | -26.13480 | 28.23305 | 5551 ft | 4 kts | 284° |
| 2026-04-30 13:34 | -26.13489 | 28.23332 | 5552 ft | 4 kts | 300° |
| 2026-04-30 13:34 | -26.13524 | 28.23361 | 5549 ft | 0 kts | 6° |
| 2026-04-30 13:37 | -26.13523 | 28.23361 | 5549 ft | 1 kts | 6° |
| 2026-04-30 13:37 | -26.13442 | 28.23375 | 5550 ft | 12 kts | 26° |
| 2026-04-30 13:38 | -26.13453 | 28.23578 | 5554 ft | 14 kts | 139° |
| 2026-04-30 13:38 | -26.13540 | 28.23574 | 5555 ft | 13 kts | 196° |
| 2026-04-30 13:38 | -26.13707 | 28.23523 | 5557 ft | 11 kts | 195° |
| 2026-04-30 13:39 | -26.13832 | 28.23486 | 5562 ft | 9 kts | 194° |
| 2026-04-30 13:39 | -26.14017 | 28.23426 | 5565 ft | 20 kts | 195° |
| 2026-04-30 13:40 | -26.14155 | 28.23384 | 5567 ft | 22 kts | 196° |
| 2026-04-30 13:40 | -26.14309 | 28.23334 | 5567 ft | 23 kts | 197° |
| 2026-04-30 13:40 | -26.14465 | 28.23289 | 5567 ft | 24 kts | 195° |
| 2026-04-30 13:40 | -26.14603 | 28.23333 | 5569 ft | 20 kts | 111° |
| 2026-04-30 13:41 | -26.14617 | 28.23437 | 5569 ft | 12 kts | 63° |
| 2026-04-30 13:41 | -26.14542 | 28.23467 | 5568 ft | 13 kts | 14° |
| 2026-04-30 13:41 | -26.14391 | 28.23514 | 5568 ft | 48 kts | 15° |
| 2026-04-30 13:41 | -26.13825 | 28.23688 | 5564 ft | 120 kts | 16° |
| 2026-04-30 13:42 | -26.12823 | 28.24001 | 5619 ft | 172 kts | 15° |
| 2026-04-30 13:42 | -26.11652 | 28.24394 | 6437 ft | 179 kts | 12° |
| 2026-04-30 13:42 | -26.09075 | 28.25166 | 7635 ft | 218 kts | 12° |
| 2026-04-30 13:43 | -26.07496 | 28.25655 | 8060 ft | 247 kts | 13° |
| 2026-04-30 13:43 | -26.05796 | 28.26025 | 8940 ft | 255 kts | 358° |
| 2026-04-30 13:43 | -26.04081 | 28.25474 | 9665 ft | 265 kts | 324° |
| 2026-04-30 13:43 | -26.02931 | 28.23905 | 10692 ft | 270 kts | 296° |
| 2026-04-30 13:44 | -26.02609 | 28.21776 | 11264 ft | 296 kts | 266° |
| 2026-04-30 13:44 | -26.03009 | 28.19476 | 11933 ft | 309 kts | 265° |
| 2026-04-30 13:44 | -26.03333 | 28.17082 | 12741 ft | 315 kts | 265° |
| 2026-04-30 13:44 | -26.03656 | 28.14675 | 13726 ft | 316 kts | 264° |
| 2026-04-30 13:45 | -26.04303 | 28.09777 | 15337 ft | 323 kts | 264° |
| 2026-04-30 13:45 | -26.04631 | 28.07290 | 16081 ft | 327 kts | 264° |
| 2026-04-30 13:45 | -26.04961 | 28.04778 | 16854 ft | 330 kts | 264° |
| 2026-04-30 13:46 | -26.05297 | 28.02234 | 17557 ft | 335 kts | 264° |
| 2026-04-30 13:46 | -26.05636 | 27.99659 | 18259 ft | 339 kts | 264° |
| 2026-04-30 13:46 | -26.06082 | 27.97108 | 18862 ft | 345 kts | 254° |
| 2026-04-30 13:46 | -26.07233 | 27.94740 | 19474 ft | 355 kts | 236° |
| 2026-04-30 13:47 | -26.08994 | 27.92778 | 20088 ft | 361 kts | 227° |
| 2026-04-30 13:47 | -26.10868 | 27.90899 | 20656 ft | 365 kts | 227° |
| 2026-04-30 13:47 | -26.12773 | 27.89017 | 21224 ft | 368 kts | 227° |
| 2026-04-30 13:47 | -26.14699 | 27.87134 | 21796 ft | 370 kts | 227° |
| 2026-04-30 13:48 | -26.16647 | 27.85240 | 22351 ft | 373 kts | 227° |
| 2026-04-30 13:48 | -26.18615 | 27.83334 | 22896 ft | 376 kts | 227° |
| 2026-04-30 13:48 | -26.20598 | 27.81415 | 23435 ft | 379 kts | 227° |
| 2026-04-30 13:48 | -26.22595 | 27.79480 | 23937 ft | 382 kts | 227° |
| 2026-04-30 13:49 | -26.24610 | 27.77530 | 24371 ft | 384 kts | 227° |
| 2026-04-30 13:49 | -26.26631 | 27.75572 | 24816 ft | 386 kts | 227° |
| 2026-04-30 13:49 | -26.28663 | 27.73602 | 25258 ft | 388 kts | 227° |
| 2026-04-30 13:49 | -26.30707 | 27.71620 | 25695 ft | 390 kts | 228° |
| 2026-04-30 13:50 | -26.32760 | 27.69628 | 26142 ft | 393 kts | 228° |
| 2026-04-30 13:50 | -26.36902 | 27.65607 | 26992 ft | 397 kts | 228° |
| 2026-04-30 13:50 | -26.38991 | 27.63577 | 27424 ft | 399 kts | 229° |
| 2026-04-30 13:51 | -26.41086 | 27.61540 | 27857 ft | 401 kts | 229° |
| 2026-04-30 13:51 | -26.43194 | 27.59491 | 28258 ft | 403 kts | 229° |
| 2026-04-30 13:51 | -26.45268 | 27.57384 | 28632 ft | 403 kts | 232° |
| 2026-04-30 13:51 | -26.47287 | 27.55207 | 29017 ft | 405 kts | 231° |
| 2026-04-30 13:52 | -26.49331 | 27.53019 | 29407 ft | 408 kts | 231° |
| 2026-04-30 13:52 | -26.51384 | 27.50827 | 29793 ft | 410 kts | 231° |
| 2026-04-30 13:52 | -26.53454 | 27.48618 | 30154 ft | 412 kts | 231° |
| 2026-04-30 13:52 | -26.55534 | 27.46398 | 30497 ft | 415 kts | 232° |
| 2026-04-30 13:53 | -26.57622 | 27.44169 | 30825 ft | 416 kts | 232° |
| 2026-04-30 13:53 | -26.59719 | 27.41929 | 31140 ft | 418 kts | 232° |
| 2026-04-30 13:53 | -26.61824 | 27.39679 | 31450 ft | 420 kts | 232° |
| 2026-04-30 13:53 | -26.63941 | 27.37415 | 31762 ft | 422 kts | 232° |
| 2026-04-30 13:54 | -26.66037 | 27.35173 | 32059 ft | 424 kts | 232° |
| 2026-04-30 13:54 | -26.68197 | 27.32860 | 32369 ft | 425 kts | 232° |
| 2026-04-30 13:54 | -26.70303 | 27.30604 | 32750 ft | 425 kts | 232° |
| 2026-04-30 13:54 | -26.72435 | 27.28320 | 33159 ft | 424 kts | 232° |
| 2026-04-30 13:55 | -26.74559 | 27.26042 | 33621 ft | 422 kts | 233° |
| 2026-04-30 13:55 | -26.76671 | 27.23777 | 34053 ft | 420 kts | 233° |
| 2026-04-30 13:55 | -26.78782 | 27.21511 | 34198 ft | 420 kts | 233° |
| 2026-04-30 13:55 | -26.80877 | 27.19261 | 34180 ft | 416 kts | 233° |
| 2026-04-30 13:56 | -26.85043 | 27.14784 | 34192 ft | 415 kts | 233° |
| 2026-04-30 13:56 | -26.89203 | 27.10307 | 34173 ft | 415 kts | 233° |
| 2026-04-30 13:57 | -26.93363 | 27.05827 | 34175 ft | 415 kts | 233° |
| 2026-04-30 13:57 | -26.97487 | 27.01315 | 34167 ft | 414 kts | 234° |
| 2026-04-30 13:58 | -27.03650 | 26.94527 | 34160 ft | 414 kts | 234° |
| 2026-04-30 13:59 | -27.07754 | 26.90003 | 34158 ft | 414 kts | 234° |
| 2026-04-30 13:59 | -27.11859 | 26.85473 | 34159 ft | 414 kts | 234° |
| 2026-04-30 14:00 | -27.15969 | 26.80932 | 34150 ft | 415 kts | 234° |
| 2026-04-30 14:00 | -27.22111 | 26.74137 | 34137 ft | 414 kts | 234° |
| 2026-04-30 14:01 | -27.26218 | 26.69588 | 34139 ft | 415 kts | 234° |
| 2026-04-30 14:01 | -27.30325 | 26.65034 | 34139 ft | 415 kts | 234° |
| 2026-04-30 14:02 | -27.34431 | 26.60475 | 34131 ft | 415 kts | 234° |
| 2026-04-30 14:02 | -27.38533 | 26.55916 | 34166 ft | 415 kts | 235° |
| 2026-04-30 14:03 | -27.42633 | 26.51354 | 34137 ft | 414 kts | 235° |
| 2026-04-30 14:03 | -27.46724 | 26.46797 | 34126 ft | 413 kts | 235° |
| 2026-04-30 14:04 | -27.50807 | 26.42244 | 34143 ft | 413 kts | 235° |
| 2026-04-30 14:04 | -27.54890 | 26.37686 | 34126 ft | 413 kts | 235° |
| 2026-04-30 14:05 | -27.58969 | 26.33127 | 34132 ft | 413 kts | 235° |
| 2026-04-30 14:05 | -27.63052 | 26.28559 | 34131 ft | 413 kts | 235° |
| 2026-04-30 14:06 | -27.69172 | 26.21703 | 34137 ft | 414 kts | 236° |
| 2026-04-30 14:07 | -27.75303 | 26.14822 | 34134 ft | 414 kts | 236° |
| 2026-04-30 14:08 | -27.81425 | 26.07939 | 34132 ft | 414 kts | 236° |
| 2026-04-30 14:08 | -27.87542 | 26.01052 | 34123 ft | 414 kts | 236° |
| 2026-04-30 14:09 | -27.91617 | 25.96457 | 34125 ft | 414 kts | 236° |
| 2026-04-30 14:10 | -27.97727 | 25.89560 | 34135 ft | 414 kts | 236° |
| 2026-04-30 14:10 | -28.01795 | 25.84957 | 34123 ft | 414 kts | 236° |
| 2026-04-30 14:11 | -28.05861 | 25.80350 | 34131 ft | 414 kts | 236° |
| 2026-04-30 14:11 | -28.09928 | 25.75738 | 34120 ft | 414 kts | 236° |
| 2026-04-30 14:12 | -28.13991 | 25.71125 | 34149 ft | 414 kts | 236° |
| 2026-04-30 14:12 | -28.18035 | 25.66529 | 34119 ft | 414 kts | 236° |
| 2026-04-30 14:13 | -28.22104 | 25.61898 | 34138 ft | 416 kts | 236° |
| 2026-04-30 14:13 | -28.26228 | 25.57200 | 34139 ft | 418 kts | 236° |
| 2026-04-30 14:14 | -28.30298 | 25.52557 | 34135 ft | 418 kts | 236° |
| 2026-04-30 14:14 | -28.34391 | 25.47885 | 34143 ft | 417 kts | 236° |
| 2026-04-30 14:15 | -28.38483 | 25.43206 | 34150 ft | 417 kts | 236° |
| 2026-04-30 14:15 | -28.42574 | 25.38523 | 34166 ft | 418 kts | 236° |
| 2026-04-30 14:16 | -28.46668 | 25.33833 | 34171 ft | 418 kts | 237° |
| 2026-04-30 14:16 | -28.50765 | 25.29131 | 34184 ft | 419 kts | 237° |
| 2026-04-30 14:17 | -28.54866 | 25.24422 | 34162 ft | 419 kts | 237° |
| 2026-04-30 14:17 | -28.58969 | 25.19704 | 34172 ft | 420 kts | 237° |
| 2026-04-30 14:18 | -28.62408 | 25.15744 | 34167 ft | 420 kts | 237° |
| 2026-04-30 14:18 | -28.68559 | 25.08653 | 34174 ft | 419 kts | 237° |
| 2026-04-30 14:19 | -28.74704 | 25.01556 | 34189 ft | 419 kts | 237° |
| 2026-04-30 14:20 | -28.78805 | 24.96813 | 34195 ft | 421 kts | 237° |
| 2026-04-30 14:20 | -28.84948 | 24.89697 | 34186 ft | 421 kts | 237° |
| 2026-04-30 14:21 | -28.89061 | 24.84925 | 34186 ft | 422 kts | 237° |
| 2026-04-30 14:22 | -28.95229 | 24.77759 | 34184 ft | 422 kts | 237° |
| 2026-04-30 14:22 | -29.01390 | 24.70589 | 34193 ft | 422 kts | 237° |
| 2026-04-30 14:23 | -29.09600 | 24.61013 | 34182 ft | 422 kts | 237° |
| 2026-04-30 14:24 | -29.15748 | 24.53826 | 34186 ft | 421 kts | 237° |
| 2026-04-30 14:25 | -29.24009 | 24.44149 | 34176 ft | 426 kts | 236° |
| 2026-04-30 14:26 | -29.30216 | 24.36863 | 34170 ft | 428 kts | 236° |
| 2026-04-30 14:27 | -29.36498 | 24.29474 | 34177 ft | 432 kts | 235° |
| 2026-04-30 14:27 | -29.40688 | 24.24539 | 34151 ft | 432 kts | 235° |
| 2026-04-30 14:28 | -29.46941 | 24.17162 | 34155 ft | 432 kts | 236° |
| 2026-04-30 14:28 | -29.51124 | 24.12219 | 34176 ft | 432 kts | 235° |
| 2026-04-30 14:29 | -29.59541 | 24.02254 | 34151 ft | 438 kts | 235° |
| 2026-04-30 14:31 | -29.70138 | 23.89673 | 34140 ft | 438 kts | 235° |
| 2026-04-30 14:31 | -29.76490 | 23.82112 | 34123 ft | 438 kts | 235° |
| 2026-04-30 14:32 | -29.82829 | 23.74550 | 34160 ft | 438 kts | 235° |
| 2026-04-30 14:33 | -29.87086 | 23.69464 | 34116 ft | 445 kts | 236° |
| 2026-04-30 14:33 | -29.93538 | 23.61745 | 34106 ft | 446 kts | 236° |
| 2026-04-30 14:34 | -29.97837 | 23.56591 | 34113 ft | 446 kts | 236° |
| 2026-04-30 14:34 | -30.02130 | 23.51438 | 34101 ft | 446 kts | 236° |
| 2026-04-30 14:35 | -30.08571 | 23.43695 | 34093 ft | 446 kts | 236° |
| 2026-04-30 14:36 | -30.12872 | 23.38515 | 34090 ft | 448 kts | 236° |
| 2026-04-30 14:36 | -30.17192 | 23.33307 | 34076 ft | 449 kts | 236° |
| 2026-04-30 14:37 | -30.21482 | 23.28127 | 34079 ft | 449 kts | 236° |
| 2026-04-30 14:37 | -30.25799 | 23.22907 | 34065 ft | 449 kts | 236° |
| 2026-04-30 14:38 | -30.30112 | 23.17685 | 34059 ft | 449 kts | 237° |
| 2026-04-30 14:38 | -30.34424 | 23.12457 | 34061 ft | 449 kts | 237° |
| 2026-04-30 14:39 | -30.38735 | 23.07223 | 34054 ft | 450 kts | 237° |
| 2026-04-30 14:39 | -30.43052 | 23.01975 | 34057 ft | 450 kts | 237° |
| 2026-04-30 14:40 | -30.49615 | 22.93982 | 34042 ft | 466 kts | 236° |
| 2026-04-30 14:40 | -30.54117 | 22.88490 | 34054 ft | 471 kts | 237° |
| 2026-04-30 14:41 | -30.58621 | 22.82987 | 34033 ft | 469 kts | 237° |
| 2026-04-30 14:41 | -30.63117 | 22.77486 | 34044 ft | 470 kts | 237° |
| 2026-04-30 14:42 | -30.67626 | 22.71961 | 34032 ft | 472 kts | 237° |
| 2026-04-30 14:42 | -30.72137 | 22.66428 | 34033 ft | 472 kts | 237° |
| 2026-04-30 14:43 | -30.76650 | 22.60885 | 34023 ft | 472 kts | 237° |
| 2026-04-30 14:43 | -30.81159 | 22.55338 | 34017 ft | 472 kts | 237° |
| 2026-04-30 14:44 | -30.85635 | 22.49825 | 34038 ft | 472 kts | 237° |
| 2026-04-30 14:44 | -30.90137 | 22.44264 | 34030 ft | 472 kts | 238° |
| 2026-04-30 14:45 | -30.94648 | 22.38656 | 34013 ft | 475 kts | 238° |
| 2026-04-30 14:45 | -30.99172 | 22.33034 | 34012 ft | 476 kts | 238° |
| 2026-04-30 14:46 | -31.03694 | 22.27406 | 34009 ft | 475 kts | 238° |
| 2026-04-30 14:46 | -31.08208 | 22.21779 | 34005 ft | 475 kts | 238° |
| 2026-04-30 14:47 | -31.12724 | 22.16142 | 34004 ft | 476 kts | 238° |
| 2026-04-30 14:47 | -31.17239 | 22.10498 | 34021 ft | 475 kts | 239° |
| 2026-04-30 14:48 | -31.21730 | 22.04875 | 33996 ft | 472 kts | 239° |
| 2026-04-30 14:48 | -31.26196 | 21.99276 | 33993 ft | 471 kts | 239° |
| 2026-04-30 14:49 | -31.30659 | 21.93671 | 33993 ft | 471 kts | 239° |
| 2026-04-30 14:49 | -31.35119 | 21.88061 | 33987 ft | 471 kts | 239° |
| 2026-04-30 14:50 | -31.41808 | 21.79634 | 33991 ft | 471 kts | 239° |
| 2026-04-30 14:51 | -31.48450 | 21.71246 | 33977 ft | 467 kts | 239° |
| 2026-04-30 14:52 | -31.55069 | 21.62869 | 33984 ft | 467 kts | 239° |
| 2026-04-30 14:52 | -31.61676 | 21.54488 | 33986 ft | 467 kts | 239° |
| 2026-04-30 14:53 | -31.68280 | 21.46091 | 33979 ft | 466 kts | 239° |
| 2026-04-30 14:54 | -31.77069 | 21.34889 | 33969 ft | 466 kts | 239° |
| 2026-04-30 14:55 | -31.83653 | 21.26473 | 33968 ft | 466 kts | 239° |
| 2026-04-30 14:56 | -31.92410 | 21.15252 | 33971 ft | 465 kts | 239° |
| 2026-04-30 14:57 | -31.98924 | 21.06883 | 33960 ft | 463 kts | 238° |
| 2026-04-30 14:58 | -32.07624 | 20.95674 | 33956 ft | 463 kts | 239° |
| 2026-04-30 14:58 | -32.14171 | 20.87214 | 33954 ft | 463 kts | 239° |
| 2026-04-30 15:00 | -32.24915 | 20.73297 | 33971 ft | 453 kts | 236° |
| 2026-04-30 15:01 | -32.33261 | 20.62451 | 33980 ft | 432 kts | 236° |
| 2026-04-30 15:01 | -32.39299 | 20.54579 | 33968 ft | 430 kts | 236° |
| 2026-04-30 15:02 | -32.43320 | 20.49329 | 33962 ft | 430 kts | 236° |
| 2026-04-30 15:03 | -32.53289 | 20.36280 | 33970 ft | 424 kts | 233° |
| 2026-04-30 15:04 | -32.63143 | 20.23338 | 33945 ft | 416 kts | 233° |
| 2026-04-30 15:05 | -32.68120 | 20.16783 | 33161 ft | 396 kts | 234° |
| 2026-04-30 15:06 | -32.71788 | 20.11942 | 32180 ft | 393 kts | 232° |
| 2026-04-30 15:06 | -32.75415 | 20.07152 | 31292 ft | 388 kts | 232° |
| 2026-04-30 15:07 | -32.78995 | 20.02418 | 30396 ft | 382 kts | 232° |
| 2026-04-30 15:07 | -32.82519 | 19.97751 | 29522 ft | 377 kts | 231° |
| 2026-04-30 15:08 | -32.85996 | 19.93142 | 28669 ft | 371 kts | 231° |
| 2026-04-30 15:08 | -32.91092 | 19.86378 | 27496 ft | 361 kts | 230° |
| 2026-04-30 15:09 | -32.94416 | 19.81958 | 26725 ft | 355 kts | 230° |
| 2026-04-30 15:09 | -32.97687 | 19.77604 | 25991 ft | 350 kts | 229° |
| 2026-04-30 15:10 | -33.00909 | 19.73309 | 25265 ft | 345 kts | 229° |
| 2026-04-30 15:11 | -33.07571 | 19.65199 | 23814 ft | 338 kts | 226° |
| 2026-04-30 15:11 | -33.10845 | 19.61246 | 23037 ft | 335 kts | 225° |
| 2026-04-30 15:12 | -33.15711 | 19.55357 | 21983 ft | 326 kts | 225° |
| 2026-04-30 15:13 | -33.18845 | 19.51560 | 21337 ft | 320 kts | 226° |
| 2026-04-30 15:14 | -33.24992 | 19.44091 | 20029 ft | 310 kts | 228° |
| 2026-04-30 15:14 | -33.28893 | 19.38010 | 19063 ft | 305 kts | 233° |
| 2026-04-30 15:16 | -33.35274 | 19.28145 | 17430 ft | 294 kts | 232° |
| 2026-04-30 15:17 | -33.40197 | 19.20544 | 16228 ft | 284 kts | 233° |
| 2026-04-30 15:18 | -33.46414 | 19.11310 | 15178 ft | 290 kts | 244° |
| 2026-04-30 15:19 | -33.49106 | 19.04849 | 14518 ft | 287 kts | 244° |